Nave Celeste — VRZH4 — position and weather

sailwx.info

Track history (hours):
 
Tides and Currents Weather Stations Pressure Air Temp Water Temp Dewpoint Dewpoint Depression Visibility Wind Speed Wind Dir Waves Ship Positions

Nave Celeste

Last reported at 2016-Jul-25 11:33 UTC. Time now 2016-Jul-25 14:02 UTC.
Position N 32°15' W 117°27'.

Length 333 m; draft 17.8 m.

Type: Ship. MMSI: 477974000.

Date/timePositionNaut miles runAvg speedWind from/ knotsBaromVisibWave heightAir tempDewpointWater temp
2016-Jul-25 11:33N 32°15' W 117°27'1 0.2
2016-Jul-25 07:21N 32°16' W 117°27'0 0.1
2016-Jul-25 04:33N 32°16' W 117°27'0 0.3
2016-Jul-25 03:33N 32°16' W 117°28'0 0.2
2016-Jul-25 02:33N 32°16' W 117°28'0 0.3
2016-Jul-25 01:32N 32°16' W 117°28'0 0.3
2016-Jul-25 00:30N 32°16' W 117°28'0 0.3
2016-Jul-24 23:23N 32°16' W 117°29'2 0.4
2016-Jul-24 19:32N 32°15' W 117°30'5 0.7
2016-Jul-24 13:09N 32°10' W 117°30'1 0.4
2016-Jul-24 11:31N 32°10' W 117°29'0 0.0
2016-Jul-24 09:17N 32°10' W 117°29'0 0.2
2016-Jul-24 07:19N 32°10' W 117°29'0 0.2
2016-Jul-24 06:33N 32°09' W 117°30'0 0.3
2016-Jul-24 05:31N 32°09' W 117°30'0 0.4
2016-Jul-24 04:33N 32°10' W 117°30'0 0.4
2016-Jul-24 03:33N 32°09' W 117°31'1 0.4
2016-Jul-24 00:28N 32°09' W 117°32'1 0.7
2016-Jul-23 23:31N 32°08' W 117°32'1 0.7
2016-Jul-23 22:33N 32°07' W 117°32'1 0.5
2016-Jul-23 21:12N 32°07' W 117°32'0 0.2
2016-Jul-23 20:33N 32°07' W 117°32'0 0.3
2016-Jul-23 19:33N 32°06' W 117°32'0 0.3
2016-Jul-23 18:29N 32°06' W 117°32'0 0.3
2016-Jul-23 17:33N 32°06' W 117°33'0 0.4
2016-Jul-23 16:32N 32°06' W 117°33'1 0.3
2016-Jul-23 14:19N 32°06' W 117°34'1 0.2
2016-Jul-23 11:08N 32°05' W 117°34'0 0.3
2016-Jul-23 10:32N 32°05' W 117°34'1 0.3
2016-Jul-23 06:17N 32°05' W 117°33'1 0.4
2016-Jul-23 03:16N 32°06' W 117°32'0 0.3
2016-Jul-23 02:33N 32°06' W 117°32'0 0.3
2016-Jul-23 01:31N 32°07' W 117°32'0 0.3
2016-Jul-23 00:32N 32°07' W 117°32'0 0.2
2016-Jul-22 23:23N 32°07' W 117°32'0 0.3
2016-Jul-22 22:13N 32°07' W 117°32'0 0.2
2016-Jul-22 21:33N 32°08' W 117°32'0 0.3
2016-Jul-22 20:33N 32°08' W 117°32'1 1.1
2016-Jul-22 19:33N 32°07' W 117°32'7 7.3
2016-Jul-22 18:32N 31°60' W 117°32'1111.5
2016-Jul-22 17:32N 31°48' W 117°33'2311.5
2016-Jul-22 15:31N 31°25' W 117°35'3 3.3
2016-Jul-22 14:33N 31°22' W 117°36'1 0.6
2016-Jul-22 13:33N 31°22' W 117°36'1 0.6
2016-Jul-22 12:33N 31°21' W 117°37'0 0.5
2016-Jul-22 11:33N 31°21' W 117°37'0 0.4
2016-Jul-22 10:33N 31°21' W 117°38'1 0.4
2016-Jul-22 08:32N 31°21' W 117°39'2 0.5
2016-Jul-22 03:33N 31°21' W 117°41'1 0.8
2016-Jul-22 02:33N 31°21' W 117°42'1 0.8
2016-Jul-22 01:31N 31°21' W 117°43'1 0.9
2016-Jul-22 00:33N 31°22' W 117°44'2 0.8
2016-Jul-21 22:30N 31°23' W 117°46'1 0.8
2016-Jul-21 21:32N 31°23' W 117°47'10 3.5
2016-Jul-21 18:33N 31°14' W 117°52'2 0.8
2016-Jul-21 16:16N 31°12' W 117°52'0 0.3
2016-Jul-21 15:26N 31°12' W 117°53'0 0.4
2016-Jul-21 14:33N 31°12' W 117°53'0 0.4
2016-Jul-21 13:31N 31°12' W 117°53'1 0.5
2016-Jul-21 12:09N 31°13' W 117°54'1 0.5
2016-Jul-21 10:15N 31°13' W 117°55'0 0.2
2016-Jul-21 08:32N 31°14' W 117°55'0 0.1
2016-Jul-21 07:33N 31°14' W 117°55'0 0.1
2016-Jul-21 06:33N 31°14' W 117°55'0 0.2
2016-Jul-21 05:33N 31°14' W 117°55'0 0.2
2016-Jul-21 04:32N 31°14' W 117°55'0 0.4
2016-Jul-21 03:28N 31°14' W 117°55'1 0.6
2016-Jul-21 01:31N 31°15' W 117°56'1 0.7
2016-Jul-21 00:32N 31°16' W 117°57'1 0.6
2016-Jul-20 23:33N 31°16' W 117°57'1 1.2
2016-Jul-20 22:32N 31°18' W 117°57'1 0.9
2016-Jul-20 21:33N 31°18' W 117°57'1 0.7
2016-Jul-20 20:33N 31°19' W 117°58'1 0.6
2016-Jul-20 19:31N 31°19' W 117°59'1 0.5
2016-Jul-20 16:33N 31°19' W 118°00'1 0.4
2016-Jul-20 15:12N 31°20' W 118°01'0 0.3
2016-Jul-20 14:33N 31°20' W 118°01'0 0.2
2016-Jul-20 13:33N 31°20' W 118°01'0 0.3
2016-Jul-20 12:30N 31°20' W 118°01'1 0.5
2016-Jul-20 11:25N 31°21' W 118°01'1 0.6
2016-Jul-20 10:33N 31°21' W 118°01'1 0.7
2016-Jul-20 09:31N 31°22' W 118°02'0 0.5
2016-Jul-20 08:32N 31°22' W 118°02'0 0.5
2016-Jul-20 07:33N 31°23' W 118°02'0 0.4
2016-Jul-20 06:34N 31°23' W 118°02'1 0.6
2016-Jul-20 05:32N 31°24' W 118°02'1 0.7
2016-Jul-20 04:07N 31°25' W 118°03'0 0.6
2016-Jul-20 03:33N 31°25' W 118°03'1 0.7
2016-Jul-20 02:33N 31°26' W 118°03'1 0.6
2016-Jul-20 01:33N 31°26' W 118°03'1 0.7
2016-Jul-20 00:33N 31°27' W 118°04'1 0.6
2016-Jul-19 23:29N 31°27' W 118°04'1 0.6
2016-Jul-19 22:33N 31°28' W 118°05'1 0.7
2016-Jul-19 21:33N 31°28' W 118°05'1 0.6
2016-Jul-19 20:33N 31°29' W 118°06'1 1.0
2016-Jul-19 19:33N 31°30' W 118°06'7 7.1
2016-Jul-19 18:31N 31°34' W 118°13'1111.6
2016-Jul-19 17:33N 31°39' W 118°25'9 9.1
2016-Jul-19 16:33N 31°43' W 118°34'6 4.8
2016-Jul-19 15:19N 31°46' W 118°40'2 1.8
2016-Jul-19 14:28N 31°47' W 118°41'1 0.8
2016-Jul-19 13:33N 31°47' W 118°42'1 0.7
2016-Jul-19 12:33N 31°47' W 118°43'1 0.7
2016-Jul-19 11:33N 31°47' W 118°44'1 1.3
2016-Jul-19 10:32N 31°48' W 118°45'1 0.9
2016-Jul-19 09:33N 31°48' W 118°46'2 2.0
2016-Jul-19 08:33N 31°50' W 118°47'2 1.7
2016-Jul-19 07:21N 31°52' W 118°49'4 1.3
2016-Jul-19 04:32N 31°55' W 118°51'1 1.3
2016-Jul-19 03:28N 31°56' W 118°52'1 1.3
2016-Jul-19 02:33N 31°57' W 118°53'1 1.3
2016-Jul-19 01:32N 31°57' W 118°54'1 1.5
2016-Jul-19 00:33N 31°58' W 118°56'2 1.5
2016-Jul-18 23:33N 31°58' W 118°57'2 1.6
2016-Jul-18 22:33N 31°59' W 118°59'1 1.4
2016-Jul-18 21:33N 31°59' W 119°01'3 2.0
2016-Jul-18 20:17N 31°60' W 119°04'2 2.3
2016-Jul-18 19:32N 32°01' W 119°05'1 0.9
2016-Jul-18 18:32N 32°01' W 119°06'1 0.9
2016-Jul-18 17:25N 32°02' W 119°07'4 4.0
2016-Jul-18 16:26N 32°04' W 119°11'5 2.2
2016-Jul-18 14:18N 32°07' W 119°15'11 2.7
2016-Jul-18 10:25N 32°15' W 119°24'0 0.4
2016-Jul-18 09:33N 32°15' W 119°24'0 0.3
2016-Jul-18 08:32N 32°14' W 119°24'0 0.1
2016-Jul-18 06:25N 32°14' W 119°23'0 0.1
2016-Jul-18 05:33N 32°14' W 119°23'0 0.3
2016-Jul-18 04:26N 32°14' W 119°23'3 0.8
2016-Jul-18 01:16N 32°12' W 119°24'1211.2
2016-Jul-18 00:11N 32°08' W 119°38'3 3.3
2016-Jul-17 23:16N 32°08' W 119°42'1 1.1
2016-Jul-17 22:33N 32°09' W 119°42'1 0.9
2016-Jul-17 21:20N 32°10' W 119°42'1 0.8
2016-Jul-17 20:07N 32°11' W 119°42'2 0.9
2016-Jul-17 18:23N 32°12' W 119°43'3 1.2
2016-Jul-17 16:22N 32°14' W 119°46'2 1.1
2016-Jul-17 14:22N 32°14' W 119°48'1 0.6
2016-Jul-17 13:15N 32°15' W 119°49'0 0.5
2016-Jul-17 12:29N 32°15' W 119°49'1 1.4
2016-Jul-17 11:30N 32°15' W 119°51'8011.4
2016-Jul-17 04:28N 31°06' W 119°04'2711.8
2016-Jul-17 02:10N 30°42' W 118°48'105 4.6
2016-Jul-16 03:10N 29°11' W 117°48'0 0.5
2016-Jul-16 02:28N 29°11' W 117°48'  
Track history (hours):
 
Tides and Currents Weather Stations Pressure Air Temp Water Temp Dewpoint Dewpoint Depression Visibility Wind Speed Wind Dir Waves Ship Positions

Nave Celeste

Last reported at 2016-Jul-25 11:33 UTC. Time now 2016-Jul-25 14:02 UTC.
Position N 32°15' W 117°27'.

Length 333 m; draft 17.8 m.

Type: Ship. MMSI: 477974000.

Date/timePositionNaut miles runAvg speedWind from/ knotsBaromVisibWave heightAir tempDewpointWater temp
2016-Jul-25 11:33N 32°15' W 117°27'1 0.2
2016-Jul-25 07:21N 32°16' W 117°27'0 0.1
2016-Jul-25 04:33N 32°16' W 117°27'0 0.3
2016-Jul-25 03:33N 32°16' W 117°28'0 0.2
2016-Jul-25 02:33N 32°16' W 117°28'0 0.3
2016-Jul-25 01:32N 32°16' W 117°28'0 0.3
2016-Jul-25 00:30N 32°16' W 117°28'0 0.3
2016-Jul-24 23:23N 32°16' W 117°29'2 0.4
2016-Jul-24 19:32N 32°15' W 117°30'5 0.7
2016-Jul-24 13:09N 32°10' W 117°30'1 0.4
2016-Jul-24 11:31N 32°10' W 117°29'0 0.0
2016-Jul-24 09:17N 32°10' W 117°29'0 0.2
2016-Jul-24 07:19N 32°10' W 117°29'0 0.2
2016-Jul-24 06:33N 32°09' W 117°30'0 0.3
2016-Jul-24 05:31N 32°09' W 117°30'0 0.4
2016-Jul-24 04:33N 32°10' W 117°30'0 0.4
2016-Jul-24 03:33N 32°09' W 117°31'1 0.4
2016-Jul-24 00:28N 32°09' W 117°32'1 0.7
2016-Jul-23 23:31N 32°08' W 117°32'1 0.7
2016-Jul-23 22:33N 32°07' W 117°32'1 0.5
2016-Jul-23 21:12N 32°07' W 117°32'0 0.2
2016-Jul-23 20:33N 32°07' W 117°32'0 0.3
2016-Jul-23 19:33N 32°06' W 117°32'0 0.3
2016-Jul-23 18:29N 32°06' W 117°32'0 0.3
2016-Jul-23 17:33N 32°06' W 117°33'0 0.4
2016-Jul-23 16:32N 32°06' W 117°33'1 0.3
2016-Jul-23 14:19N 32°06' W 117°34'1 0.2
2016-Jul-23 11:08N 32°05' W 117°34'0 0.3
2016-Jul-23 10:32N 32°05' W 117°34'1 0.3
2016-Jul-23 06:17N 32°05' W 117°33'1 0.4
2016-Jul-23 03:16N 32°06' W 117°32'0 0.3
2016-Jul-23 02:33N 32°06' W 117°32'0 0.3
2016-Jul-23 01:31N 32°07' W 117°32'0 0.3
2016-Jul-23 00:32N 32°07' W 117°32'0 0.2
2016-Jul-22 23:23N 32°07' W 117°32'0 0.3
2016-Jul-22 22:13N 32°07' W 117°32'0 0.2
2016-Jul-22 21:33N 32°08' W 117°32'0 0.3
2016-Jul-22 20:33N 32°08' W 117°32'1 1.1
2016-Jul-22 19:33N 32°07' W 117°32'7 7.3
2016-Jul-22 18:32N 31°60' W 117°32'1111.5
2016-Jul-22 17:32N 31°48' W 117°33'2311.5
2016-Jul-22 15:31N 31°25' W 117°35'3 3.3
2016-Jul-22 14:33N 31°22' W 117°36'1 0.6
2016-Jul-22 13:33N 31°22' W 117°36'1 0.6
2016-Jul-22 12:33N 31°21' W 117°37'0 0.5
2016-Jul-22 11:33N 31°21' W 117°37'0 0.4
2016-Jul-22 10:33N 31°21' W 117°38'1 0.4
2016-Jul-22 08:32N 31°21' W 117°39'2 0.5
2016-Jul-22 03:33N 31°21' W 117°41'1 0.8
2016-Jul-22 02:33N 31°21' W 117°42'1 0.8
2016-Jul-22 01:31N 31°21' W 117°43'1 0.9
2016-Jul-22 00:33N 31°22' W 117°44'2 0.8
2016-Jul-21 22:30N 31°23' W 117°46'1 0.8
2016-Jul-21 21:32N 31°23' W 117°47'10 3.5
2016-Jul-21 18:33N 31°14' W 117°52'2 0.8
2016-Jul-21 16:16N 31°12' W 117°52'0 0.3
2016-Jul-21 15:26N 31°12' W 117°53'0 0.4
2016-Jul-21 14:33N 31°12' W 117°53'0 0.4
2016-Jul-21 13:31N 31°12' W 117°53'1 0.5
2016-Jul-21 12:09N 31°13' W 117°54'1 0.5
2016-Jul-21 10:15N 31°13' W 117°55'0 0.2
2016-Jul-21 08:32N 31°14' W 117°55'0 0.1
2016-Jul-21 07:33N 31°14' W 117°55'0 0.1
2016-Jul-21 06:33N 31°14' W 117°55'0 0.2
2016-Jul-21 05:33N 31°14' W 117°55'0 0.2
2016-Jul-21 04:32N 31°14' W 117°55'0 0.4
2016-Jul-21 03:28N 31°14' W 117°55'1 0.6
2016-Jul-21 01:31N 31°15' W 117°56'1 0.7
2016-Jul-21 00:32N 31°16' W 117°57'1 0.6
2016-Jul-20 23:33N 31°16' W 117°57'1 1.2
2016-Jul-20 22:32N 31°18' W 117°57'1 0.9
2016-Jul-20 21:33N 31°18' W 117°57'1 0.7
2016-Jul-20 20:33N 31°19' W 117°58'1 0.6
2016-Jul-20 19:31N 31°19' W 117°59'1 0.5
2016-Jul-20 16:33N 31°19' W 118°00'1 0.4
2016-Jul-20 15:12N 31°20' W 118°01'0 0.3
2016-Jul-20 14:33N 31°20' W 118°01'0 0.2
2016-Jul-20 13:33N 31°20' W 118°01'0 0.3
2016-Jul-20 12:30N 31°20' W 118°01'1 0.5
2016-Jul-20 11:25N 31°21' W 118°01'1 0.6
2016-Jul-20 10:33N 31°21' W 118°01'1 0.7
2016-Jul-20 09:31N 31°22' W 118°02'0 0.5
2016-Jul-20 08:32N 31°22' W 118°02'0 0.5
2016-Jul-20 07:33N 31°23' W 118°02'0 0.4
2016-Jul-20 06:34N 31°23' W 118°02'1 0.6
2016-Jul-20 05:32N 31°24' W 118°02'1 0.7
2016-Jul-20 04:07N 31°25' W 118°03'0 0.6
2016-Jul-20 03:33N 31°25' W 118°03'1 0.7
2016-Jul-20 02:33N 31°26' W 118°03'1 0.6
2016-Jul-20 01:33N 31°26' W 118°03'1 0.7
2016-Jul-20 00:33N 31°27' W 118°04'1 0.6
2016-Jul-19 23:29N 31°27' W 118°04'1 0.6
2016-Jul-19 22:33N 31°28' W 118°05'1 0.7
2016-Jul-19 21:33N 31°28' W 118°05'1 0.6
2016-Jul-19 20:33N 31°29' W 118°06'1 1.0
2016-Jul-19 19:33N 31°30' W 118°06'7 7.1
2016-Jul-19 18:31N 31°34' W 118°13'1111.6
2016-Jul-19 17:33N 31°39' W 118°25'9 9.1
2016-Jul-19 16:33N 31°43' W 118°34'6 4.8
2016-Jul-19 15:19N 31°46' W 118°40'2 1.8
2016-Jul-19 14:28N 31°47' W 118°41'1 0.8
2016-Jul-19 13:33N 31°47' W 118°42'1 0.7
2016-Jul-19 12:33N 31°47' W 118°43'1 0.7
2016-Jul-19 11:33N 31°47' W 118°44'1 1.3
2016-Jul-19 10:32N 31°48' W 118°45'1 0.9
2016-Jul-19 09:33N 31°48' W 118°46'2 2.0
2016-Jul-19 08:33N 31°50' W 118°47'2 1.7
2016-Jul-19 07:21N 31°52' W 118°49'4 1.3
2016-Jul-19 04:32N 31°55' W 118°51'1 1.3
2016-Jul-19 03:28N 31°56' W 118°52'1 1.3
2016-Jul-19 02:33N 31°57' W 118°53'1 1.3
2016-Jul-19 01:32N 31°57' W 118°54'1 1.5
2016-Jul-19 00:33N 31°58' W 118°56'2 1.5
2016-Jul-18 23:33N 31°58' W 118°57'2 1.6
2016-Jul-18 22:33N 31°59' W 118°59'1 1.4
2016-Jul-18 21:33N 31°59' W 119°01'3 2.0
2016-Jul-18 20:17N 31°60' W 119°04'2 2.3
2016-Jul-18 19:32N 32°01' W 119°05'1 0.9
2016-Jul-18 18:32N 32°01' W 119°06'1 0.9
2016-Jul-18 17:25N 32°02' W 119°07'4 4.0
2016-Jul-18 16:26N 32°04' W 119°11'5 2.2
2016-Jul-18 14:18N 32°07' W 119°15'11 2.7
2016-Jul-18 10:25N 32°15' W 119°24'0 0.4
2016-Jul-18 09:33N 32°15' W 119°24'0 0.3
2016-Jul-18 08:32N 32°14' W 119°24'0 0.1
2016-Jul-18 06:25N 32°14' W 119°23'0 0.1
2016-Jul-18 05:33N 32°14' W 119°23'0 0.3
2016-Jul-18 04:26N 32°14' W 119°23'3 0.8
2016-Jul-18 01:16N 32°12' W 119°24'1211.2
2016-Jul-18 00:11N 32°08' W 119°38'3 3.3
2016-Jul-17 23:16N 32°08' W 119°42'1 1.1
2016-Jul-17 22:33N 32°09' W 119°42'1 0.9
2016-Jul-17 21:20N 32°10' W 119°42'1 0.8
2016-Jul-17 20:07N 32°11' W 119°42'2 0.9
2016-Jul-17 18:23N 32°12' W 119°43'3 1.2
2016-Jul-17 16:22N 32°14' W 119°46'2 1.1
2016-Jul-17 14:22N 32°14' W 119°48'1 0.6
2016-Jul-17 13:15N 32°15' W 119°49'0 0.5
2016-Jul-17 12:29N 32°15' W 119°49'1 1.4
2016-Jul-17 11:30N 32°15' W 119°51'8011.4
2016-Jul-17 04:28N 31°06' W 119°04'2711.8
2016-Jul-17 02:10N 30°42' W 118°48'105 4.6
2016-Jul-16 03:10N 29°11' W 117°48'0 0.5
2016-Jul-16 02:28N 29°11' W 117°48'  

Dump ship's entire track history